aviador You're here:

SAVC Decoded Metar

COMODORO RIVADAVIA in ARGENTINA
Report Time2017-11-22 05:00:00
UTC Time2017-11-22 05:20:16
Flight Rules vfr VFR
Wind270° at 15 kt
W.Decomp.*RWY 25: 14.6 kt HW 3.4 kt RCW
W.Rank270° ranks 1
Current wind is above 270° avg. (12.6)
Visibility9999 m
Phenomena:N/A
Clouds:N/A
Expected CloudBase > 4,000 ft AGL from Temp-Dew spread
CeilingNone
Temp16°C (ISA +1)
Dew Point06°C (52% RH)
AAT9.7°C
QNH1010 hPa
Density Alt535 ft
Elevation151 ft
Report Wrong Elevation
Raw Report
METAR SAVC 220500Z 27015KT 250V320 CAVOK 16/06 Q1010=

Extra information for SAVC:More info

Metar Taf Metar & Taf Last 4 Metars F.Rules Stats Wind Profile Meteogram Temp Stats Airport Information Weather charts Add Link Nearby VenuesMetar ALERT Operation Metar Decoded Social comments